Pagrindinis puslapis
METAR-TAF:

METAR-TAF

Oro uostai :

Gurdaka, Egiptas

platuma: 27-09N, ilguma: 033-43E, Aukštis: 16 m

Dabartinis oras

Ataskaita buvo paskelbta 1 valandą ir 44 minutes, ne 12:00 UTC
Vėjas 15 kt iš Šiaurės
Temperatūra 36°C
Drėgmė 29%
Slėgis 1001 hPa
Matomumas 10 km arba daugiau
nėra debesų žemiau 1500 m ir nėra kamuolinių lietaus debesų

METAR: HEGN 181200Z 36015KT CAVOK 36/15 Q1001 NOSIG

Laikas: 15:44 (13:44 UTC)

Prognozė

Ataskaita buvo paskelbta 2 valandos ir 44 minutes, ne 11:00 UTC
Prognozė galioja nuo 18 metu 12 UTC su 19 metu 18 UTC
Vėjas 15 kt iš Šiaurės/Šiaurės Vakarų su gūsio iki 25 kt
Matomumas 10 km arba daugiau
nėra debesų žemiau 1500 m ir nėra kamuolinių lietaus debesų

TAF: HEGN 181100Z 1812/1918 34015G25KT CAVOK

Orai ataskaitas ir orų prognozės (METAR, TAF).

turimą stotys yra geltonos ir raudonos taškus žemėlapyje.

Perkelti pele per norėdami pamatyti stoties vardą.

Tada spustelėkite, norėdami matyti oro stebėjimo ir prognozės.

Norėdami pakeisti žemėlapį: spustelėkite ant žalios mygtukų su juodo kryžiaus žemyn,; žalią mygtuką su brūkšneliu, jei norite nutolinti; arba žalių rodyklių gretimoms žemėlapius.


METAR-TAF: